createdAt,value
2022-08-05T00:01:36.196Z,98598.13
2022-08-05T00:04:18.457Z,98603.88
2022-08-05T00:06:47.728Z,98604.53
2022-08-05T00:09:22.211Z,98598.66
2022-08-05T00:11:55.790Z,98596.72
2022-08-05T00:14:29.264Z,98587.72
2022-08-05T00:17:01.903Z,98589.50
2022-08-05T00:19:33.322Z,98589.50
2022-08-05T00:22:11.114Z,98587.91
2022-08-05T00:24:42.831Z,98590.19
2022-08-05T00:27:14.070Z,98585.81
2022-08-05T00:29:45.809Z,98586.84
2022-08-05T00:32:15.440Z,98590.22
2022-08-05T00:35:03.535Z,98580.41
2022-08-05T00:37:52.645Z,98585.69
2022-08-05T00:40:28.996Z,98589.09
2022-08-05T00:43:01.497Z,98581.25
2022-08-05T00:45:38.346Z,98583.19
2022-08-05T00:48:10.022Z,98591.06
2022-08-05T00:50:41.197Z,98579.06
2022-08-05T00:54:01.375Z,98584.84
2022-08-05T00:56:01.735Z,98580.53
2022-08-05T00:58:30.523Z,98579.38
2022-08-05T01:00:59.429Z,98578.78
2022-08-05T01:03:31.001Z,98588.41
2022-08-05T01:06:05.494Z,98583.78
2022-08-05T01:08:43.058Z,98580.09
2022-08-05T01:11:36.672Z,98579.81
2022-08-05T01:14:15.245Z,98574.53
2022-08-05T01:16:53.741Z,98578.69
2022-08-05T01:20:02.240Z,98574.84
2022-08-05T01:22:47.242Z,98574.84
2022-08-05T01:25:54.926Z,98573.91
2022-08-05T01:28:34.928Z,98569.44
2022-08-05T01:31:12.092Z,98571.66
2022-08-05T01:33:51.980Z,98569.13
2022-08-05T01:36:28.699Z,98564.59
2022-08-05T01:39:00.289Z,98564.13
2022-08-05T01:41:37.492Z,98559.81
2022-08-05T01:44:11.213Z,98554.50
2022-08-05T01:46:46.118Z,98560.28
2022-08-05T01:49:24.356Z,98566.53
2022-08-05T01:51:59.503Z,98557.22
2022-08-05T01:54:45.999Z,98558.34
2022-08-05T01:58:10.811Z,98554.03
2022-08-05T02:00:12.766Z,98548.06
2022-08-05T02:02:53.612Z,98546.63
2022-08-05T02:05:31.263Z,98543.44
2022-08-05T02:08:06.856Z,98547.63
2022-08-05T02:10:43.171Z,98547.97
2022-08-05T02:13:18.565Z,98535.94
2022-08-05T02:15:57.499Z,98538.50
2022-08-05T02:18:34.944Z,98533.69
2022-08-05T02:21:15.275Z,98525.03
2022-08-05T02:23:53.458Z,98523.59
2022-08-05T02:26:38.962Z,98521.97
2022-08-05T02:29:58.143Z,98519.25
2022-08-05T02:32:24.242Z,98514.28
2022-08-05T02:35:02.027Z,98516.88
2022-08-05T02:37:47.899Z,98518.78
2022-08-05T02:40:26.000Z,98514.94
2022-08-05T02:42:58.139Z,98518.00
2022-08-05T02:45:52.080Z,98519.75
2022-08-05T02:48:20.924Z,98512.88
2022-08-05T02:51:01.190Z,98507.56
2022-08-05T02:53:35.979Z,98498.94
2022-08-05T02:56:15.918Z,98508.22
2022-08-05T02:58:51.664Z,98501.66
2022-08-05T03:01:27.141Z,98504.38
2022-08-05T03:04:11.994Z,98502.75
2022-08-05T03:06:56.095Z,98504.84
2022-08-05T03:09:38.301Z,98511.25
2022-08-05T03:12:34.943Z,98504.34
2022-08-05T03:15:06.908Z,98511.41
2022-08-05T03:17:41.715Z,98510.13
2022-08-05T03:20:13.811Z,98510.28
2022-08-05T03:22:44.271Z,98500.66
2022-08-05T03:25:32.933Z,98511.41
2022-08-05T03:28:04.942Z,98509.81
2022-08-05T03:30:35.137Z,98509.00
2022-08-05T03:33:07.694Z,98513.81
2022-08-05T03:35:41.241Z,98512.84
2022-08-05T03:38:14.693Z,98504.69
2022-08-05T03:40:47.235Z,98509.63
2022-08-05T03:44:08.039Z,98510.44
2022-08-05T03:46:14.478Z,98517.03
2022-08-05T03:48:45.311Z,98516.84
2022-08-05T03:52:38.611Z,98521.97
2022-08-05T03:55:34.229Z,98527.59
2022-08-05T03:57:16.719Z,98530.31
2022-08-05T03:59:54.799Z,98534.81
2022-08-05T04:02:34.785Z,98536.75
2022-08-05T04:05:11.837Z,98538.50
2022-08-05T04:07:57.511Z,98543.66
2022-08-05T04:10:33.362Z,98543.63
2022-08-05T04:13:08.831Z,98546.69
2022-08-05T04:16:02.920Z,98549.09
2022-08-05T04:18:30.648Z,98555.66
2022-08-05T04:20:59.993Z,98556.63
2022-08-05T04:24:06.040Z,98551.19
2022-08-05T04:26:20.972Z,98549.59
2022-08-05T04:28:51.185Z,98554.84
2022-08-05T04:38:01.417Z,98548.94
2022-08-05T04:40:19.525Z,98555.38
2022-08-05T04:42:49.450Z,98557.91
2022-08-05T04:45:31.316Z,98549.75
2022-08-05T04:48:10.225Z,98557.91
2022-08-05T04:51:02.044Z,98559.03
2022-08-05T04:53:33.666Z,98558.38
2022-08-05T04:56:33.245Z,98555.84
2022-08-05T04:58:56.427Z,98554.09
2022-08-05T05:02:06.090Z,98556.16
2022-08-05T05:04:18.109Z,98560.34
2022-08-05T05:06:49.261Z,98560.81
2022-08-05T05:09:21.009Z,98557.59
2022-08-05T05:11:55.522Z,98558.56
2022-08-05T05:14:27.848Z,98555.22
2022-08-05T05:17:01.442Z,98560.22
2022-08-05T05:19:36.900Z,98559.56
2022-08-05T05:22:22.907Z,98555.81
2022-08-05T05:24:58.063Z,98561.28
2022-08-05T05:27:44.376Z,98561.47
2022-08-05T05:30:29.226Z,98561.66
2022-08-05T05:33:03.561Z,98559.88
2022-08-05T05:35:43.251Z,98559.25
2022-08-05T05:38:13.426Z,98560.22
2022-08-05T05:40:49.772Z,98558.59
2022-08-05T05:43:57.267Z,98565.50
2022-08-05T09:03:40.530Z,98770.16
2022-08-05T09:06:18.599Z,98764.31
2022-08-05T09:08:50.387Z,98758.06
2022-08-05T09:11:19.298Z,98757.72
2022-08-05T09:14:54.696Z,98767.06
2022-08-05T09:16:57.845Z,98765.53
2022-08-05T09:19:27.851Z,98768.66
2022-08-05T09:22:22.658Z,98767.31
2022-08-05T09:25:13.831Z,98763.59
2022-08-05T09:28:05.811Z,98763.31
2022-08-05T09:30:36.221Z,98765.50
2022-08-05T09:33:07.779Z,98766.28
2022-08-05T09:35:36.671Z,98765.72
2022-08-05T09:38:16.422Z,98769.69
2022-08-05T09:40:52.158Z,98771.00
2022-08-05T09:43:40.682Z,98761.00
2022-08-05T09:46:28.543Z,98760.84
2022-08-05T09:49:07.625Z,98760.13
2022-08-05T09:51:49.372Z,98751.47
2022-08-05T09:54:32.310Z,98756.13
2022-08-05T09:57:01.717Z,98759.56
2022-08-05T09:59:37.021Z,98758.59
2022-08-05T10:02:07.254Z,98751.16
2022-08-05T10:04:41.123Z,98737.97
2022-08-05T10:07:20.064Z,98747.75
2022-08-05T10:10:14.021Z,98744.81
2022-08-05T10:12:49.857Z,98749.69
2022-08-05T10:15:28.250Z,98758.44
2022-08-05T10:18:16.756Z,98751.44
2022-08-05T10:20:49.616Z,98745.75
2022-08-05T10:23:55.436Z,98742.22
2022-08-05T10:26:15.048Z,98738.47
2022-08-05T10:28:46.656Z,98747.72
2022-08-05T10:32:54.429Z,98752.47
2022-08-05T10:34:08.129Z,98743.72
2022-08-05T10:36:39.133Z,98751.34
2022-08-05T10:39:24.530Z,98746.97
2022-08-05T10:42:13.587Z,98744.75
2022-08-05T10:44:48.747Z,98729.00
2022-08-05T10:47:26.614Z,98736.88
2022-08-05T10:50:28.062Z,98738.84
2022-08-05T10:53:06.632Z,98732.66
2022-08-05T10:56:03.749Z,98739.00
2022-08-05T10:58:47.790Z,98738.69
2022-08-05T11:01:28.041Z,98724.56
2022-08-05T11:04:12.156Z,98721.00
2022-08-05T11:07:09.348Z,98727.47
2022-08-05T11:09:47.263Z,98732.28
2022-08-05T11:12:54.221Z,98727.50
2022-08-05T11:16:01.007Z,98734.63
2022-08-05T11:18:32.469Z,98729.84
2022-08-05T11:21:06.196Z,98739.44
2022-08-05T11:24:04.924Z,98746.25
2022-08-05T11:26:43.163Z,98746.28
2022-08-05T11:29:38.193Z,98737.16
2022-08-05T11:35:04.327Z,98728.88
2022-08-05T11:38:28.673Z,98733.59
2022-08-05T11:41:15.429Z,98735.19
2022-08-05T11:44:06.252Z,98727.63
2022-08-05T11:47:09.615Z,98726.44
2022-08-05T11:49:33.830Z,98733.16
2022-08-05T11:52:11.264Z,98723.13
2022-08-05T11:54:41.827Z,98719.56
2022-08-05T11:57:26.059Z,98718.84
2022-08-05T11:59:56.798Z,98718.09
2022-08-05T12:02:33.431Z,98724.47
2022-08-05T12:05:07.101Z,98720.88
2022-08-05T12:08:08.220Z,98712.53
2022-08-05T12:10:43.731Z,98705.34
2022-08-05T12:13:47.848Z,98701.78
2022-08-05T12:16:14.508Z,98703.72
2022-08-05T12:18:49.101Z,98702.59
2022-08-05T12:21:26.751Z,98701.81
2022-08-05T12:24:07.697Z,98695.13
2022-08-05T12:26:39.230Z,98699.88
2022-08-05T12:29:16.307Z,98695.84
2022-08-05T12:31:53.953Z,98702.19
2022-08-05T12:34:31.382Z,98697.41
2022-08-05T12:37:10.733Z,98694.25
2022-08-05T12:39:41.992Z,98693.94
2022-08-05T12:42:20.297Z,98696.69
2022-08-05T12:44:49.864Z,98694.28
2022-08-05T12:47:30.676Z,98679.94
2022-08-05T12:50:03.837Z,98679.88
2022-08-05T12:52:39.742Z,98682.19
2022-08-05T12:55:25.357Z,98680.03
2022-08-05T12:58:49.408Z,98677.09
2022-08-05T13:02:00.765Z,98673.44
2022-08-05T13:03:42.092Z,98679.22
2022-08-05T13:06:19.657Z,98679.47
2022-08-05T13:08:52.267Z,98670.50
2022-08-05T13:11:57.860Z,98679.53
2022-08-05T13:14:24.808Z,98681.44
2022-08-05T13:17:11.587Z,98672.53
2022-08-05T13:19:52.899Z,98677.59
2022-08-05T13:22:28.484Z,98671.19
2022-08-05T13:25:05.668Z,98671.00
2022-08-05T13:27:40.116Z,98678.06
2022-08-05T13:30:35.313Z,98677.03
2022-08-05T13:33:02.129Z,98677.28
2022-08-05T13:35:47.342Z,98680.81
2022-08-05T13:38:30.482Z,98683.25
2022-08-05T13:41:00.763Z,98678.88
2022-08-05T13:43:44.163Z,98674.28
2022-08-05T13:46:38.032Z,98670.59
2022-08-05T13:49:10.077Z,98668.25
2022-08-05T13:51:46.035Z,98660.84
2022-08-05T13:54:20.965Z,98662.53
2022-08-05T13:56:54.571Z,98659.84
2022-08-05T13:59:27.016Z,98667.84
2022-08-05T14:02:00.085Z,98664.09
2022-08-05T14:04:49.391Z,98661.91
2022-08-05T14:07:55.584Z,98660.69
2022-08-05T14:10:13.824Z,98664.25
2022-08-05T14:12:48.746Z,98665.78
2022-08-05T14:16:04.956Z,98658.56
2022-08-05T14:18:14.883Z,98650.47
2022-08-05T14:20:48.186Z,98656.31
2022-08-05T14:23:23.432Z,98650.16
2022-08-05T14:25:58.490Z,98641.75
2022-08-05T14:28:29.882Z,98637.88
2022-08-05T14:31:01.469Z,98630.41
2022-08-05T14:33:59.647Z,98636.47
2022-08-05T14:36:22.182Z,98629.75
2022-08-05T14:38:51.843Z,98630.38
2022-08-05T14:41:22.059Z,98629.28
2022-08-05T14:44:00.095Z,98635.59
2022-08-05T14:46:35.033Z,98637.97
2022-08-05T14:49:08.125Z,98624.78
2022-08-05T14:51:38.204Z,98629.88
2022-08-05T14:54:27.664Z,98626.88
2022-08-05T14:56:57.057Z,98623.22
2022-08-05T14:59:29.380Z,98620.06
2022-08-05T15:02:01.438Z,98620.84
2022-08-05T15:04:33.267Z,98624.41
2022-08-05T15:07:02.318Z,98624.53
2022-08-05T15:09:51.968Z,98623.59
2022-08-05T15:12:21.001Z,98637.28
2022-08-05T15:15:00.944Z,98636.38
2022-08-05T15:17:45.834Z,98638.47
2022-08-05T15:20:18.771Z,98641.53
2022-08-05T15:22:52.144Z,98639.94
2022-08-05T15:25:41.203Z,98640.75
2022-08-05T15:28:28.938Z,98646.25
2022-08-05T15:31:03.652Z,98645.00
2022-08-05T15:34:18.468Z,98641.88
2022-08-05T15:36:30.964Z,98638.00
2022-08-05T15:40:58.327Z,98639.81
2022-08-05T15:41:58.161Z,98646.94
2022-08-05T15:44:30.288Z,98646.66
2022-08-05T15:47:02.033Z,98653.97
2022-08-05T15:49:48.276Z,98657.19
2022-08-05T15:52:52.036Z,98648.91
2022-08-05T15:55:17.662Z,98656.84
2022-08-05T15:57:49.005Z,98652.50
2022-08-05T16:00:30.635Z,98656.13
2022-08-05T16:03:11.051Z,98651.09
2022-08-05T16:05:47.430Z,98646.75
2022-08-05T16:08:19.854Z,98653.22
2022-08-05T16:10:49.278Z,98659.25
2022-08-05T16:13:19.321Z,98664.47
2022-08-05T16:15:53.133Z,98657.75
2022-08-05T16:18:22.252Z,98663.28
2022-08-05T16:21:04.375Z,98667.28
2022-08-05T16:23:54.682Z,98663.34
2022-08-05T16:26:26.493Z,98668.09
2022-08-05T16:28:57.300Z,98674.50
2022-08-05T16:31:27.113Z,98683.22
2022-08-05T16:34:16.929Z,98685.19
2022-08-05T16:36:47.626Z,98691.16
2022-08-05T16:39:20.765Z,98691.97
2022-08-05T16:42:14.084Z,98700.66
2022-08-05T16:44:39.620Z,98716.94
2022-08-05T16:47:28.928Z,98716.50
2022-08-05T16:49:57.701Z,98721.22
2022-08-05T16:52:32.538Z,98724.34
2022-08-05T16:55:04.356Z,98725.16
2022-08-05T16:57:53.832Z,98729.09
2022-08-05T17:00:26.037Z,98725.06
2022-08-05T17:03:03.841Z,98738.47
2022-08-05T17:05:44.494Z,98732.09
2022-08-05T17:08:36.100Z,98747.53
2022-08-05T17:11:16.693Z,98758.13
2022-08-05T17:13:46.818Z,98750.59
2022-08-05T17:16:35.875Z,98758.84
2022-08-05T17:19:07.602Z,98773.84
2022-08-05T17:21:40.079Z,98769.72
2022-08-05T17:24:19.324Z,98775.72
2022-08-05T17:27:01.116Z,98783.53
2022-08-05T17:29:33.523Z,98784.56
2022-08-05T17:32:11.355Z,98786.91
2022-08-05T17:34:41.158Z,98788.81
2022-08-05T17:37:29.384Z,98803.81
2022-08-05T17:40:02.001Z,98823.34
2022-08-05T17:42:33.066Z,98827.44
2022-08-05T17:45:09.914Z,98833.31
2022-08-05T17:47:54.445Z,98840.66
2022-08-05T17:50:29.689Z,98839.47
2022-08-05T17:53:01.060Z,98856.66
2022-08-05T17:55:37.976Z,98865.78
2022-08-05T17:58:12.303Z,98871.22
2022-08-05T18:00:47.092Z,98893.41
2022-08-05T18:06:11.960Z,98921.28
2022-08-05T18:08:52.057Z,98927.25
2022-08-05T18:11:32.890Z,98934.97
2022-08-05T18:17:06.612Z,98954.50
2022-08-05T18:20:14.888Z,98985.81
2022-08-05T18:22:54.221Z,98988.38
2022-08-05T18:25:23.929Z,98993.78
2022-08-05T18:27:55.330Z,98995.34
2022-08-05T18:30:29.259Z,99007.94
2022-08-05T18:33:00.395Z,99013.91
2022-08-05T18:35:49.735Z,99011.16
2022-08-05T18:38:26.074Z,99018.75
2022-08-05T18:41:58.406Z,99023.19
2022-08-05T18:43:48.654Z,99034.34
2022-08-05T18:46:19.795Z,99050.56
2022-08-05T18:48:52.758Z,99048.13
2022-08-05T18:52:04.188Z,99046.97
2022-08-05T18:54:31.277Z,99054.00
2022-08-05T18:57:01.430Z,99070.34
2022-08-05T18:59:44.356Z,99071.75
2022-08-05T19:02:27.877Z,99073.25
2022-08-05T19:06:06.042Z,99083.47
2022-08-05T19:08:01.832Z,99086.22
2022-08-05T19:10:31.712Z,99088.75
2022-08-05T19:13:02.464Z,99093.56
2022-08-05T19:15:58.902Z,99098.59
2022-08-05T19:18:26.283Z,99102.41
2022-08-05T19:20:56.751Z,99105.91
2022-08-05T19:24:07.430Z,99121.16
2022-08-05T19:26:16.739Z,99121.53
2022-08-05T19:28:46.135Z,99127.38
2022-08-05T19:31:21.393Z,99145.00
2022-08-05T19:33:56.500Z,99139.66
2022-08-05T19:36:29.393Z,99147.34
2022-08-05T19:39:02.924Z,99163.41
2022-08-05T19:41:58.397Z,99156.66
2022-08-05T19:44:23.300Z,99163.41
2022-08-05T19:47:01.749Z,99165.22
2022-08-05T19:49:31.683Z,99176.47
2022-08-05T19:52:08.740Z,99181.13
2022-08-05T19:54:52.492Z,99172.59
2022-08-05T19:57:49.239Z,99176.34
2022-08-05T20:00:12.015Z,99178.72
2022-08-05T20:02:42.550Z,99179.59
2022-08-05T20:05:16.607Z,99183.56
2022-08-05T20:07:58.780Z,99180.34
2022-08-05T20:10:30.466Z,99197.34
2022-08-05T20:12:59.381Z,99200.56
2022-08-05T20:15:51.862Z,99209.19
2022-08-05T20:18:33.779Z,99213.38
2022-08-05T20:21:07.125Z,99212.28
2022-08-05T20:23:44.492Z,99215.53
2022-08-05T20:26:27.105Z,99219.63
2022-08-05T20:29:00.665Z,99224.16
2022-08-05T20:31:42.147Z,99232.41
2022-08-05T20:34:20.488Z,99231.13
2022-08-05T20:36:49.226Z,99236.41
2022-08-05T20:39:18.872Z,99235.84
2022-08-05T20:41:48.563Z,99242.00
2022-08-05T20:44:29.108Z,99238.28
2022-08-05T20:47:00.943Z,99245.59
2022-08-05T20:49:33.196Z,99249.75
2022-08-05T20:52:07.264Z,99255.91
2022-08-05T20:54:42.747Z,99259.63
2022-08-05T20:57:14.170Z,99265.78
2022-08-05T21:00:11.075Z,99274.47
2022-08-05T21:02:39.247Z,99277.06
2022-08-05T21:05:11.377Z,99272.88
2022-08-05T21:07:50.987Z,99277.84
2022-08-05T21:10:21.915Z,99283.00
2022-08-05T21:13:08.935Z,99288.31
2022-08-05T21:15:44.326Z,99305.72
2022-08-05T21:18:13.301Z,99307.16
2022-08-05T21:20:44.141Z,99318.75
2022-08-05T21:23:15.157Z,99318.41
2022-08-05T21:25:45.610Z,99326.00
2022-08-05T21:28:18.592Z,99342.63
2022-08-05T21:30:48.376Z,99344.38
2022-08-05T21:33:22.598Z,99344.06
2022-08-05T21:35:58.398Z,99356.78
2022-08-05T21:38:28.657Z,99369.91
2022-08-05T21:40:57.936Z,99377.47
2022-08-05T21:43:26.708Z,99374.59
2022-08-05T21:46:11.929Z,99366.41
2022-08-05T21:48:41.123Z,99383.38
2022-08-05T21:52:15.532Z,99378.03
2022-08-05T21:54:03.910Z,99371.72
2022-08-05T21:56:32.906Z,99359.13
2022-08-05T21:59:04.063Z,99343.63
2022-08-05T22:01:37.020Z,99356.94
2022-08-05T22:04:06.159Z,99370.44
2022-08-05T22:06:43.839Z,99348.47
2022-08-05T22:09:21.174Z,99359.69
2022-08-05T22:11:50.513Z,99362.38
2022-08-05T22:14:35.876Z,99370.63
2022-08-05T22:17:07.706Z,99382.91
2022-08-05T22:20:03.443Z,99392.03
2022-08-05T22:22:29.412Z,99408.88
2022-08-05T22:25:21.277Z,99418.34
2022-08-05T22:28:09.028Z,99458.25
2022-08-05T22:30:44.191Z,99479.31
2022-08-05T22:33:58.072Z,99509.03
2022-08-05T22:36:15.841Z,99508.31
2022-08-05T22:38:48.707Z,99481.50
2022-08-05T22:42:05.445Z,99474.97
2022-08-05T22:44:09.433Z,99466.03
2022-08-05T22:46:41.310Z,99486.28
2022-08-05T22:49:23.471Z,99488.19
2022-08-05T22:52:05.293Z,99486.41
2022-08-05T22:54:38.878Z,99465.47
2022-08-05T22:57:08.651Z,99475.19
2022-08-05T22:59:48.287Z,99475.19
2022-08-05T23:02:28.993Z,99476.59
2022-08-05T23:05:02.029Z,99474.97
2022-08-05T23:07:44.795Z,99467.31
2022-08-05T23:10:16.382Z,99463.66
2022-08-05T23:12:51.717Z,99455.16
2022-08-05T23:15:29.001Z,99448.84
2022-08-05T23:18:02.214Z,99423.06
2022-08-05T23:20:33.505Z,99418.72
2022-08-05T23:23:08.703Z,99420.75
2022-08-05T23:25:52.346Z,99420.66
2022-08-05T23:28:26.875Z,99420.75
2022-08-05T23:31:16.620Z,99441.69
2022-08-05T23:34:04.477Z,99454.97
2022-08-05T23:36:38.401Z,99457.78
2022-08-05T23:39:10.293Z,99470.19
2022-08-05T23:41:48.544Z,99472.66
2022-08-05T23:44:19.914Z,99464.91
2022-08-05T23:46:53.883Z,99468.88
2022-08-05T23:49:33.733Z,99476.56
2022-08-05T23:52:20.564Z,99483.56
2022-08-05T23:54:51.077Z,99502.66
2022-08-05T23:57:21.630Z,99515.25
